createdAt,value
2024-01-07T00:00:50.392Z,4.05
2024-01-07T00:05:49.840Z,4.009
2024-01-07T00:10:47.920Z,4.019
2024-01-07T00:15:48.411Z,4.009
2024-01-07T00:20:47.546Z,3.959
2024-01-07T00:25:50.230Z,3.889
2024-01-07T00:30:48.832Z,3.889
2024-01-07T00:35:49.736Z,3.838
2024-01-07T00:40:45.313Z,3.828
2024-01-07T00:45:47.690Z,3.858
2024-01-07T00:50:49.078Z,3.858
2024-01-07T00:55:48.492Z,3.798
2024-01-07T01:00:51.546Z,3.748
2024-01-07T01:05:50.774Z,3.657
2024-01-07T01:10:50.207Z,3.687
2024-01-07T01:15:51.960Z,3.687
2024-01-07T01:20:47.592Z,3.617
2024-01-07T01:25:50.233Z,3.617
2024-01-07T01:30:48.736Z,3.556
2024-01-07T01:35:47.303Z,3.556
2024-01-07T01:40:47.908Z,3.476
2024-01-07T01:45:47.607Z,3.375
2024-01-07T01:50:50.126Z,3.294
2024-01-07T01:55:47.881Z,3.274
2024-01-07T02:00:50.692Z,3.244
2024-01-07T02:05:48.131Z,3.254
2024-01-07T02:10:46.718Z,3.244
2024-01-07T02:15:48.190Z,3.244
2024-01-07T02:20:47.320Z,3.163
2024-01-07T02:25:46.450Z,3.113
2024-01-07T02:30:49.182Z,3.043
2024-01-07T02:35:50.651Z,3.012
2024-01-07T02:40:47.940Z,2.912
2024-01-07T02:45:53.490Z,2.892
2024-01-07T02:50:48.293Z,2.811
2024-01-07T02:55:48.787Z,2.751
2024-01-07T03:00:49.638Z,2.71
2024-01-07T03:05:52.404Z,2.74
2024-01-07T03:10:47.049Z,2.73
2024-01-07T03:15:47.962Z,2.599
2024-01-07T03:20:51.578Z,2.589
2024-01-07T03:25:47.309Z,2.63
2024-01-07T03:30:47.808Z,2.559
2024-01-07T03:35:48.015Z,2.519
2024-01-07T03:40:50.023Z,2.448
2024-01-07T03:45:47.355Z,2.529
2024-01-07T03:50:50.585Z,2.438
2024-01-07T03:55:51.861Z,2.418
2024-01-07T04:00:51.430Z,2.338
2024-01-07T04:05:46.652Z,2.348
2024-01-07T04:10:45.577Z,2.318
2024-01-07T04:15:45.744Z,2.257
2024-01-07T04:20:47.550Z,2.237
2024-01-07T04:25:47.429Z,2.136
2024-01-07T04:30:49.004Z,2.156
2024-01-07T04:35:47.111Z,2.126
2024-01-07T04:40:49.085Z,2.086
2024-01-07T04:45:51.510Z,2.046
2024-01-07T04:50:48.409Z,2.076
2024-01-07T04:55:48.782Z,2.015
2024-01-07T05:00:50.678Z,1.945
2024-01-07T05:05:49.019Z,1.874
2024-01-07T05:10:48.129Z,1.864
2024-01-07T05:15:47.630Z,1.824
2024-01-07T05:20:46.857Z,1.834
2024-01-07T05:25:55.883Z,1.804
2024-01-07T05:30:49.945Z,1.804
2024-01-07T05:35:49.215Z,1.754
2024-01-07T05:40:50.034Z,1.733
2024-01-07T05:45:48.541Z,1.713
2024-01-07T05:50:50.696Z,1.653
2024-01-07T05:55:53.055Z,1.572
2024-01-07T06:00:50.905Z,1.582
2024-01-07T06:05:55.237Z,1.532
2024-01-07T06:10:47.401Z,1.472
2024-01-07T06:15:48.415Z,1.441
2024-01-07T06:20:53.003Z,1.371
2024-01-07T06:25:48.498Z,1.29
2024-01-07T06:30:53.169Z,1.23
2024-01-07T06:35:48.823Z,1.25
2024-01-07T06:40:49.991Z,1.22
2024-01-07T06:45:48.090Z,1.139
2024-01-07T06:50:49.644Z,1.119
2024-01-07T06:55:50.604Z,1.079
2024-01-07T07:00:49.660Z,1.069
2024-01-07T07:05:53.291Z,1.039
2024-01-07T07:10:48.404Z,0.928
2024-01-07T07:15:48.155Z,0.918
2024-01-07T07:20:50.565Z,0.898
2024-01-07T07:25:51.029Z,0.918
2024-01-07T07:30:54.525Z,0.797
2024-01-07T07:35:50.772Z,0.817
2024-01-07T07:40:53.006Z,0.736
2024-01-07T07:45:53.573Z,0.686
2024-01-07T07:50:54.099Z,0.686
2024-01-07T07:55:54.664Z,0.686
2024-01-07T08:00:55.918Z,0.736
2024-01-07T08:05:53.418Z,0.676
2024-01-07T08:10:53.236Z,0.706
2024-01-07T08:15:53.993Z,0.746
2024-01-07T08:20:53.925Z,0.716
2024-01-07T08:25:52.356Z,0.757
2024-01-07T08:30:52.693Z,0.777
2024-01-07T08:35:55.202Z,0.797
2024-01-07T08:40:52.554Z,0.797
2024-01-07T08:45:54.800Z,0.797
2024-01-07T08:50:53.737Z,0.746
2024-01-07T08:55:52.635Z,0.837
2024-01-07T09:00:53.268Z,0.857
2024-01-07T09:05:51.144Z,0.968
2024-01-07T09:10:54.059Z,0.958
2024-01-07T09:15:53.210Z,1.069
2024-01-07T09:20:56.939Z,1.049
2024-01-07T09:25:50.515Z,1.039
2024-01-07T09:30:53.870Z,0.968
2024-01-07T09:35:51.229Z,1.109
2024-01-07T09:40:53.833Z,1.099
2024-01-07T09:45:52.280Z,1.008
2024-01-07T09:50:52.544Z,0.968
2024-01-07T09:55:52.480Z,0.928
2024-01-07T10:00:52.583Z,0.968
2024-01-07T10:05:52.526Z,0.827
2024-01-07T10:10:51.328Z,0.857
2024-01-07T10:15:52.035Z,0.817
2024-01-07T10:20:53.281Z,0.746
2024-01-07T10:25:51.935Z,0.636
2024-01-07T10:30:53.941Z,0.616
2024-01-07T10:35:52.768Z,0.575
2024-01-07T10:40:56.760Z,0.475
2024-01-07T10:45:54.849Z,0.495
2024-01-07T10:50:54.005Z,0.475
2024-01-07T10:55:51.982Z,0.495
2024-01-07T11:00:51.453Z,0.555
2024-01-07T11:05:52.241Z,0.525
2024-01-07T11:10:57.691Z,0.535
2024-01-07T11:15:57.912Z,0.495
2024-01-07T11:20:55.669Z,0.495
2024-01-07T11:25:55.990Z,0.495
2024-01-07T11:30:54.284Z,0.424
2024-01-07T11:35:53.467Z,0.475
2024-01-07T11:40:52.895Z,0.394
2024-01-07T11:45:57.982Z,0.344
2024-01-07T11:50:54.235Z,0.374
2024-01-07T11:55:51.043Z,0.323
2024-01-07T12:00:55.653Z,0.394
2024-01-07T12:05:55.418Z,0.323
2024-01-07T12:10:56.828Z,0.293
2024-01-07T12:15:53.036Z,0.273
2024-01-07T12:20:51.782Z,0.374
2024-01-07T12:25:53.442Z,0.475
2024-01-07T12:30:55.288Z,0.475
2024-01-07T12:35:54.110Z,0.595
2024-01-07T12:40:52.435Z,0.323
2024-01-07T12:45:53.260Z,0.203
2024-01-07T12:50:53.508Z,0.142
2024-01-07T12:55:53.306Z,0.062
2024-01-07T13:00:59.664Z,0.021
2024-01-07T13:05:53.828Z,0.042
2024-01-07T13:10:52.898Z,-0.089
2024-01-07T13:15:54.721Z,-0.16
2024-01-07T13:20:52.774Z,-0.12
2024-01-07T13:25:54.672Z,-0.2
2024-01-07T13:30:54.799Z,-0.17
2024-01-07T13:35:53.915Z,-0.251
2024-01-07T13:40:52.359Z,-0.291
2024-01-07T13:56:14.183Z,-0.381
2024-01-07T14:00:51.177Z,-0.482
2024-01-07T14:05:52.734Z,-0.472
2024-01-07T14:10:52.229Z,-0.472
2024-01-07T14:15:50.160Z,-0.502
2024-01-07T14:20:55.269Z,-0.482
2024-01-07T14:25:50.785Z,-0.553
2024-01-07T14:30:58.645Z,-0.553
2024-01-07T14:35:50.790Z,-0.613
2024-01-07T14:40:48.873Z,-0.623
2024-01-07T14:45:51.041Z,-0.633
2024-01-07T14:50:53.683Z,-0.684
2024-01-07T14:55:49.810Z,-0.744
2024-01-07T15:00:57.369Z,-0.744
2024-01-07T15:05:51.175Z,-0.804
2024-01-07T15:10:49.825Z,-0.825
2024-01-07T15:15:52.224Z,-0.865
2024-01-07T15:20:49.909Z,-0.915
2024-01-07T15:25:47.663Z,-0.925
2024-01-07T15:30:48.872Z,-0.956
2024-01-07T15:35:48.696Z,-0.956
2024-01-07T15:40:47.973Z,-1.026
2024-01-07T15:45:48.096Z,-1.046
2024-01-07T15:50:48.369Z,-1.096
2024-01-07T15:55:49.618Z,-1.127
2024-01-07T16:00:48.626Z,-1.107
2024-01-07T16:05:49.036Z,-1.187
2024-01-07T16:10:49.907Z,-1.207
2024-01-07T16:15:53.115Z,-1.197
2024-01-07T16:20:53.320Z,-1.268
2024-01-07T16:25:46.958Z,-1.288
2024-01-07T16:30:51.593Z,-1.348
2024-01-07T16:35:51.291Z,-1.348
2024-01-07T16:40:45.754Z,-1.378
2024-01-07T16:45:51.967Z,-1.419
2024-01-07T16:50:50.149Z,-1.449
2024-01-07T16:55:48.278Z,-1.409
2024-01-07T17:00:49.058Z,-1.409
2024-01-07T17:05:49.318Z,-1.409
2024-01-07T17:10:48.089Z,-1.439
2024-01-07T17:15:49.573Z,-1.519
2024-01-07T17:20:46.991Z,-1.57
2024-01-07T17:25:50.152Z,-1.56
2024-01-07T17:30:48.819Z,-1.62
2024-01-07T17:35:49.773Z,-1.6
2024-01-07T17:40:49.277Z,-1.62
2024-01-07T17:45:48.002Z,-1.681
2024-01-07T17:50:51.078Z,-1.701
2024-01-07T17:55:51.142Z,-1.711
2024-01-07T18:00:50.677Z,-1.681
2024-01-07T18:05:48.168Z,-1.711
2024-01-07T18:10:51.764Z,-1.751
2024-01-07T18:15:46.982Z,-1.751
2024-01-07T18:20:46.245Z,-1.812
2024-01-07T18:25:48.024Z,-1.832
2024-01-07T18:30:47.479Z,-1.882
2024-01-07T18:35:51.962Z,-1.812
2024-01-07T18:40:47.369Z,-1.862
2024-01-07T18:45:47.595Z,-1.862
2024-01-07T18:50:47.402Z,-1.942
2024-01-07T18:55:50.350Z,-1.983
2024-01-07T19:00:47.709Z,-2.073
2024-01-07T19:05:53.666Z,-2.124
2024-01-07T19:10:47.698Z,-2.164
2024-01-07T19:15:47.052Z,-2.204
2024-01-07T19:20:52.106Z,-2.124
2024-01-07T19:25:50.270Z,-2.124
2024-01-07T19:30:51.328Z,-2.134
2024-01-07T19:35:48.653Z,-2.174
2024-01-07T19:40:52.547Z,-2.204
2024-01-07T19:45:50.480Z,-2.255
2024-01-07T19:50:50.574Z,-2.275
2024-01-07T19:55:49.983Z,-2.275
2024-01-07T20:00:48.813Z,-2.355
2024-01-07T20:05:50.109Z,-2.325
2024-01-07T20:10:55.316Z,-2.355
2024-01-07T20:15:49.464Z,-2.315
2024-01-07T20:20:53.259Z,-2.345
2024-01-07T20:25:50.398Z,-2.436
2024-01-07T20:30:49.979Z,-2.466
2024-01-07T20:35:46.821Z,-2.436
2024-01-07T20:40:47.094Z,-2.486
2024-01-07T20:45:49.443Z,-2.466
2024-01-07T20:50:51.849Z,-2.527
2024-01-07T20:55:46.148Z,-2.567
2024-01-07T21:00:51.415Z,-2.647
2024-01-07T21:05:46.802Z,-2.708
2024-01-07T21:10:51.503Z,-2.708
2024-01-07T21:15:47.023Z,-2.768
2024-01-07T21:20:49.547Z,-2.768
2024-01-07T21:25:47.709Z,-2.859
2024-01-07T21:30:48.518Z,-2.899
2024-01-07T21:35:51.226Z,-2.95
2024-01-07T21:40:51.463Z,-2.95
2024-01-07T21:45:47.815Z,-2.98
2024-01-07T21:50:48.113Z,-2.98
2024-01-07T21:55:45.916Z,-2.98
2024-01-07T22:00:49.441Z,-3.04
2024-01-07T22:05:46.153Z,-3.131
2024-01-07T22:10:47.415Z,-3.171
2024-01-07T22:15:49.930Z,-3.131
2024-01-07T22:20:46.528Z,-3.08
2024-01-07T22:25:47.941Z,-3.101
2024-01-07T22:30:49.156Z,-3.111
2024-01-07T22:35:45.670Z,-3.101
2024-01-07T22:40:47.668Z,-3.08
2024-01-07T22:45:51.340Z,-3.141
2024-01-07T22:50:49.689Z,-3.06
2024-01-07T22:55:48.242Z,-3.03
2024-01-07T23:01:23.204Z,-3.06
2024-01-07T23:05:53.228Z,-3.07
2024-01-07T23:10:51.023Z,-3.06
2024-01-07T23:15:52.498Z,-3.08
2024-01-07T23:20:50.201Z,-3.08
2024-01-07T23:25:48.505Z,-3.101
2024-01-07T23:30:54.743Z,-3.101
2024-01-07T23:36:02.182Z,-3.101
2024-01-07T23:40:49.105Z,-3.101
2024-01-07T23:45:49.388Z,-3.171
2024-01-07T23:50:49.353Z,-3.111
2024-01-07T23:55:49.597Z,-3.141
